Time;durP1;ratioP1;P1;durP2;ratioP2;P2;SDS_P1;SDS_P2;PMS_P1;PMS_P2;Temp;Humidity;BMP_temperature;BMP_pressure;BME280_temperature;BME280_humidity;BME280_pressure;Samples;Min_cycle;Max_cycle;Signal;HPM_P1;HPM_P2
2023/11/20 04:47:45;;;;;;;2.57;0.60;;;9.70;99.90;;;;;;5176975;23;20268;-72
2023/11/20 04:50:10;;;;;;;1.70;0.40;;;9.70;99.90;;;;;;4951110;29;20187;-72
2023/11/20 04:52:36;;;;;;;4.03;0.53;;;9.70;99.90;;;;;;4951518;29;20186;-71
2023/11/20 04:55:04;;;;;;;1.60;0.40;;;9.70;99.90;;;;;;4951906;29;20218;-72
2023/11/20 04:57:29;;;;;;;4.93;0.70;;;9.70;99.90;;;;;;4951164;28;20548;-72
2023/11/20 04:59:57;;;;;;;4.97;0.63;;;9.70;99.90;;;;;;4951819;29;20183;-71
2023/11/20 05:02:25;;;;;;;3.77;0.73;;;9.70;99.90;;;;;;4951232;28;20185;-71
2023/11/20 05:04:50;;;;;;;7.40;0.67;;;9.70;99.90;;;;;;4951876;29;20183;-72
2023/11/20 05:07:16;;;;;;;5.40;0.80;;;9.60;99.90;;;;;;4951182;28;20222;-71
2023/11/20 05:09:41;;;;;;;5.10;0.90;;;9.70;99.90;;;;;;4951848;28;20182;-71
2023/11/20 05:12:07;;;;;;;2.17;0.50;;;9.60;99.90;;;;;;4951999;28;20191;-71
2023/11/20 05:14:33;;;;;;;5.87;0.50;;;9.70;99.90;;;;;;4951538;28;20202;-72
2023/11/20 05:16:59;;;;;;;10.47;1.47;;;9.60;99.90;;;;;;4951031;28;20210;-72
2023/11/20 05:19:24;;;;;;;4.77;0.40;;;9.60;99.90;;;;;;4951736;29;20232;-70
2023/11/20 05:21:50;;;;;;;2.20;0.60;;;9.70;99.90;;;;;;4951636;28;20179;-71
2023/11/20 05:24:15;;;;;;;6.17;0.70;;;9.60;99.90;;;;;;4951676;29;20202;-71
2023/11/20 05:26:41;;;;;;;2.73;0.50;;;9.60;99.90;;;;;;4950520;28;20585;-72
2023/11/20 05:29:07;;;;;;;5.63;0.57;;;9.60;99.90;;;;;;4951481;29;20194;-72
2023/11/20 05:31:33;;;;;;;2.67;0.50;;;9.60;99.90;;;;;;4951339;29;20195;-71
2023/11/20 05:33:59;;;;;;;1.70;0.50;;;9.60;99.90;;;;;;4951376;29;20190;-72
2023/11/20 05:36:24;;;;;;;1.57;0.50;;;9.60;99.90;;;;;;4950194;28;20199;-72
2023/11/20 05:38:50;;;;;;;2.00;0.50;;;9.60;99.90;;;;;;4951277;28;20273;-71
2023/11/20 05:41:16;;;;;;;1.23;0.40;;;9.60;99.90;;;;;;4953479;28;20285;-71
2023/11/20 05:43:41;;;;;;;1.23;0.43;;;9.60;99.90;;;;;;4954709;29;20251;-71
2023/11/20 05:46:07;;;;;;;1.47;0.40;;;9.50;99.90;;;;;;4954194;28;20233;-72
2023/11/20 05:48:32;;;;;;;5.10;0.60;;;9.50;99.90;;;;;;4954736;29;20629;-71
2023/11/20 05:50:58;;;;;;;4.00;0.33;;;9.50;99.90;;;;;;4954731;28;20197;-71
2023/11/20 05:53:24;;;;;;;4.93;0.40;;;9.50;99.90;;;;;;4937672;29;20210;-71
2023/11/20 05:55:49;;;;;;;1.13;0.30;;;9.50;99.90;;;;;;4954032;28;20565;-72
2023/11/20 05:58:15;;;;;;;1.80;0.30;;;9.50;99.90;;;;;;4954655;29;20186;-71
2023/11/20 06:00:41;;;;;;;1.23;0.37;;;9.50;99.90;;;;;;4954498;29;20757;-72
2023/11/20 06:03:07;;;;;;;3.43;0.20;;;9.50;99.90;;;;;;4954638;29;20697;-70
2023/11/20 06:05:32;;;;;;;12.70;6.03;;;9.50;99.90;;;;;;4953208;28;20191;-70
2023/11/20 06:07:58;;;;;;;4.27;0.70;;;9.50;99.90;;;;;;4954466;28;20209;-70
2023/11/20 06:10:24;;;;;;;2.53;0.33;;;9.40;99.90;;;;;;4939176;29;20194;-71
2023/11/20 06:12:49;;;;;;;1.90;0.50;;;9.40;99.90;;;;;;4954584;28;20194;-71
2023/11/20 06:15:15;;;;;;;1.87;0.40;;;9.40;99.90;;;;;;4954184;29;20242;-71
2023/11/20 06:17:40;;;;;;;1.77;0.50;;;9.40;99.90;;;;;;4953764;28;20213;-72
2023/11/20 06:20:08;;;;;;;4.10;0.60;;;9.30;99.90;;;;;;4954507;29;20182;-72
2023/11/20 06:22:35;;;;;;;1.57;0.30;;;9.30;99.90;;;;;;4955433;28;20194;-72
2023/11/20 06:25:00;;;;;;;6.37;0.60;;;9.20;99.90;;;;;;4960837;28;20540;-71
2023/11/20 06:27:26;;;;;;;2.80;0.60;;;9.20;99.90;;;;;;4957440;28;20209;-72
2023/11/20 06:29:52;;;;;;;2.13;0.50;;;9.20;99.90;;;;;;4960458;28;20193;-71
2023/11/20 06:32:17;;;;;;;5.03;0.50;;;9.20;99.90;;;;;;4961078;28;20197;-71
2023/11/20 06:34:43;;;;;;;4.20;0.60;;;9.20;99.90;;;;;;4958641;28;20194;-71
2023/11/20 06:37:08;;;;;;;6.67;1.00;;;9.20;99.90;;;;;;4953361;28;20214;-72
2023/11/20 06:39:34;;;;;;;3.83;0.60;;;9.20;99.90;;;;;;4953894;28;20178;-72
2023/11/20 06:42:00;;;;;;;6.30;0.60;;;9.20;99.90;;;;;;4954115;29;20190;-71
2023/11/20 06:44:25;;;;;;;2.00;0.40;;;9.20;99.90;;;;;;4953676;29;20187;-72
2023/11/20 06:46:52;;;;;;;5.03;0.60;;;9.20;99.90;;;;;;4953316;28;20218;-72
2023/11/20 06:49:19;;;;;;;8.20;0.90;;;9.20;99.90;;;;;;4953814;28;20183;-72
2023/11/20 06:51:45;;;;;;;2.63;0.60;;;9.20;99.90;;;;;;4952651;28;20221;-72
2023/11/20 06:54:10;;;;;;;3.80;0.70;;;9.20;99.90;;;;;;4961926;28;20638;-72
2023/11/20 06:56:36;;;;;;;4.67;0.87;;;9.20;99.90;;;;;;4960801;28;20199;-71
2023/11/20 06:59:02;;;;;;;6.93;0.90;;;9.20;99.90;;;;;;4953588;28;20186;-72
2023/11/20 07:01:28;;;;;;;6.07;1.00;;;9.20;99.90;;;;;;4953600;29;20182;-72
2023/11/20 07:03:55;;;;;;;10.07;1.10;;;9.20;99.90;;;;;;4953529;28;20225;-72
2023/11/20 07:06:23;;;;;;;3.90;1.10;;;9.20;99.90;;;;;;4952688;28;20258;-73
2023/11/20 07:08:49;;;;;;;6.80;1.50;;;9.20;99.90;;;;;;4952759;29;20642;-72
2023/11/20 07:11:14;;;;;;;4.37;0.97;;;9.20;99.90;;;;;;4952901;28;20181;-69
2023/11/20 07:13:40;;;;;;;13.57;1.30;;;9.20;99.90;;;;;;4953308;29;20178;-72
2023/11/20 07:16:07;;;;;;;8.33;1.10;;;9.20;99.90;;;;;;4948887;28;20222;-71
2023/11/20 07:18:33;;;;;;;3.43;0.93;;;9.20;99.90;;;;;;4952312;28;20206;-72
2023/11/20 07:20:59;;;;;;;11.00;1.40;;;9.30;99.90;;;;;;4952588;29;20182;-73
2023/11/20 07:23:24;;;;;;;7.57;1.07;;;9.30;99.90;;;;;;4943648;29;20183;-72
2023/11/20 07:25:53;;;;;;;5.70;1.00;;;9.30;99.90;;;;;;4951908;28;20186;-72
2023/11/20 07:28:18;;;;;;;9.20;1.07;;;9.30;99.90;;;;;;4952605;29;20564;-72
2023/11/20 07:30:44;;;;;;;5.03;1.30;;;9.30;99.90;;;;;;4952452;28;20186;-71
2023/11/20 07:33:09;;;;;;;5.77;1.13;;;9.30;99.90;;;;;;4952622;29;20357;-72
2023/11/20 07:35:36;;;;;;;5.53;1.27;;;9.30;99.90;;;;;;4951868;28;20237;-72
2023/11/20 07:38:02;;;;;;;14.60;2.13;;;9.30;99.90;;;;;;4952414;28;20210;-72
2023/11/20 07:40:28;;;;;;;7.77;1.63;;;9.30;99.90;;;;;;4952705;29;20237;-73
2023/11/20 07:42:53;;;;;;;7.27;1.40;;;9.30;99.90;;;;;;4952646;29;20236;-72
2023/11/20 07:45:19;;;;;;;4.83;1.00;;;9.30;99.90;;;;;;4952202;28;20280;-72
2023/11/20 07:47:45;;;;;;;11.03;1.60;;;9.30;99.90;;;;;;4951708;28;20222;-71
2023/11/20 07:50:14;;;;;;;14.00;3.50;;;9.30;99.90;;;;;;4952125;29;20198;-72
2023/11/20 07:52:41;;;;;;;9.30;1.60;;;9.30;99.90;;;;;;4952201;29;20190;-72
2023/11/20 07:55:08;;;;;;;7.30;1.80;;;9.30;99.90;;;;;;4952183;29;20582;-72
2023/11/20 07:57:34;;;;;;;8.07;1.40;;;9.30;99.90;;;;;;4951296;28;20288;-72
2023/11/20 08:00:00;;;;;;;6.77;1.50;;;9.40;99.90;;;;;;4952340;29;20666;-72
2023/11/20 08:02:26;;;;;;;6.23;1.53;;;9.40;99.90;;;;;;4951251;28;20234;-70
2023/11/20 08:04:52;;;;;;;6.70;1.20;;;9.30;99.90;;;;;;4952025;29;20186;-72
2023/11/20 08:07:18;;;;;;;10.80;1.60;;;9.30;99.90;;;;;;4951312;28;20274;-73
2023/11/20 08:09:43;;;;;;;7.30;1.30;;;9.20;99.90;;;;;;4951624;29;20728;-72
2023/11/20 08:12:09;;;;;;;12.03;1.70;;;9.10;99.90;;;;;;4951784;29;20182;-72
2023/11/20 08:14:35;;;;;;;9.73;1.70;;;9.10;99.90;;;;;;4951501;28;20242;-71
2023/11/20 08:17:01;;;;;;;12.60;1.73;;;9.10;99.90;;;;;;4951513;28;20288;-73
2023/11/20 08:19:28;;;;;;;8.00;1.20;;;9.20;99.90;;;;;;4951529;29;20289;-70
2023/11/20 08:21:54;;;;;;;11.03;1.40;;;9.10;99.90;;;;;;4951328;29;20674;-70
2023/11/20 08:24:19;;;;;;;4.80;1.27;;;9.10;99.90;;;;;;4950693;29;20217;-70
2023/11/20 08:26:48;;;;;;;7.70;1.60;;;9.10;99.90;;;;;;4950055;28;20198;-70
2023/11/20 08:29:18;;;;;;;6.00;1.20;;;9.10;99.90;;;;;;4951816;29;20182;-70
2023/11/20 08:31:45;;;;;;;8.20;1.50;;;9.20;99.90;;;;;;4951944;29;20175;-70
2023/11/20 08:34:10;;;;;;;12.70;1.37;;;9.20;99.90;;;;;;4951953;28;20189;-70
2023/11/20 08:36:36;;;;;;;6.10;1.50;;;9.30;99.90;;;;;;4951016;28;20205;-70
2023/11/20 08:39:05;;;;;;;10.27;1.33;;;9.50;99.90;;;;;;4951746;28;20190;-71
2023/11/20 08:41:31;;;;;;;9.97;1.70;;;9.60;99.90;;;;;;4941325;29;20178;-70
2023/11/20 08:43:59;;;;;;;7.10;1.40;;;9.60;99.90;;;;;;4951754;28;20206;-71
2023/11/20 08:46:24;;;;;;;5.10;1.70;;;9.70;99.90;;;;;;4950709;28;20198;-71
2023/11/20 08:48:50;;;;;;;7.87;1.50;;;9.80;99.90;;;;;;4951635;28;20261;-71
2023/11/20 08:51:15;;;;;;;10.33;1.43;;;9.90;99.90;;;;;;4951629;29;20193;-72
2023/11/20 08:53:41;;;;;;;12.00;1.60;;;10.00;99.90;;;;;;4959784;28;20262;-70
2023/11/20 08:56:07;;;;;;;10.13;1.83;;;10.00;99.90;;;;;;4950777;28;20225;-71
2023/11/20 08:58:32;;;;;;;9.20;1.70;;;10.00;99.90;;;;;;4951928;29;20187;-71
2023/11/20 09:00:59;;;;;;;8.20;1.40;;;10.10;99.90;;;;;;4951648;29;20198;-71
2023/11/20 09:03:24;;;;;;;5.33;0.93;;;10.10;99.90;;;;;;4951452;29;20218;-70
2023/11/20 09:05:50;;;;;;;8.27;1.33;;;10.10;99.90;;;;;;4950888;28;20194;-71
2023/11/20 09:08:15;;;;;;;4.57;1.13;;;10.20;99.90;;;;;;4951535;29;20186;-74
2023/11/20 09:10:41;;;;;;;10.87;1.10;;;10.20;99.90;;;;;;4951500;29;20297;-71
2023/11/20 09:13:07;;;;;;;9.23;1.53;;;10.10;99.90;;;;;;4951344;29;20666;-71
2023/11/20 09:15:32;;;;;;;6.73;1.33;;;10.20;99.90;;;;;;4953204;28;20218;-72
2023/11/20 09:17:58;;;;;;;8.57;1.30;;;10.30;99.90;;;;;;4954662;28;20209;-71
2023/11/20 09:20:24;;;;;;;13.97;1.50;;;10.40;99.90;;;;;;4954302;29;20586;-72
2023/11/20 09:22:50;;;;;;;6.97;1.10;;;10.40;99.90;;;;;;4939185;29;20191;-71
2023/11/20 09:25:16;;;;;;;9.37;1.50;;;10.50;99.90;;;;;;4954974;29;20217;-71
2023/11/20 09:27:42;;;;;;;8.30;1.30;;;10.50;99.90;;;;;;4954057;28;20249;-71
2023/11/20 09:30:14;;;;;;;9.57;1.10;;;10.70;99.90;;;;;;4954814;29;20201;-72
2023/11/20 09:32:40;;;;;;;6.97;1.20;;;10.80;99.90;;;;;;4954666;29;20673;-72
2023/11/20 09:35:08;;;;;;;7.53;1.50;;;10.90;99.90;;;;;;4954589;29;20261;-70
2023/11/20 09:37:34;;;;;;;9.80;1.50;;;11.00;99.90;;;;;;4953822;28;20217;-70
2023/11/20 09:40:04;;;;;;;11.07;1.40;;;11.20;99.90;;;;;;4954364;28;20190;-70
2023/11/20 09:42:30;;;;;;;7.07;1.60;;;11.10;99.90;;;;;;4952420;29;20178;-70
2023/11/20 09:45:00;;;;;;;7.97;3.43;;;11.10;99.90;;;;;;4954259;29;20191;-71
2023/11/20 09:47:28;;;;;;;9.57;1.73;;;11.10;99.90;;;;;;4953413;28;20297;-71
2023/11/20 09:49:57;;;;;;;12.80;1.77;;;11.20;99.90;;;;;;4953928;28;20195;-71
2023/11/20 09:52:25;;;;;;;9.67;2.03;;;11.10;99.90;;;;;;4954227;29;20565;-71
2023/11/20 09:54:55;;;;;;;11.55;2.25;;;11.10;99.90;;;;;;4954041;29;20815;-69
2023/11/20 09:57:25;;;;;;;11.50;2.50;;;11.10;99.90;;;;;;4954019;28;20198;-69
2023/11/20 09:59:50;;;;;;;8.90;2.40;;;11.10;99.90;;;;;;4962366;28;20194;-68
2023/11/20 10:02:17;;;;;;;8.57;3.17;;;11.10;99.90;;;;;;4954015;29;20209;-67
2023/11/20 10:04:45;;;;;;;15.50;3.33;;;11.10;99.90;;;;;;4946356;29;20253;-69
2023/11/20 10:07:15;;;;;;;7.13;1.73;;;11.20;99.90;;;;;;4953219;28;20206;-69
2023/11/20 10:09:47;;;;;;;8.13;1.10;;;11.30;99.90;;;;;;4953820;29;20210;-68
2023/11/20 10:12:15;;;;;;;3.00;1.20;;;11.30;99.90;;;;;;4952738;29;20186;-68
2023/11/20 10:14:41;;;;;;;10.10;1.50;;;11.20;99.90;;;;;;4952815;28;20530;-68
2023/11/20 10:17:11;;;;;;;8.53;1.87;;;11.20;99.90;;;;;;4953097;28;20206;-68
2023/11/20 10:19:37;;;;;;;7.30;1.40;;;11.40;99.90;;;;;;4953642;28;20189;-68
2023/11/20 10:22:05;;;;;;;4.60;0.87;;;11.50;99.90;;;;;;4953877;29;20194;-68
2023/11/20 10:24:31;;;;;;;6.67;1.63;;;11.70;99.90;;;;;;4953590;29;20190;-69
2023/11/20 10:26:57;;;;;;;3.90;1.33;;;11.80;99.90;;;;;;4952482;28;20740;-68
2023/11/20 10:29:23;;;;;;;5.50;1.10;;;11.90;99.90;;;;;;4953571;28;20214;-67
2023/11/20 10:31:49;;;;;;;4.33;1.10;;;12.00;99.90;;;;;;4953950;28;20523;-68
2023/11/20 10:34:17;;;;;;;5.57;1.20;;;12.10;99.90;;;;;;4953336;29;20190;-68
2023/11/20 10:37:00;;;;;;;8.53;1.30;;;12.10;99.90;;;;;;4952897;28;20194;-68
2023/11/20 10:39:27;;;;;;;4.13;1.17;;;12.10;99.90;;;;;;4953264;29;20506;-68
2023/11/20 10:41:52;;;;;;;2.70;1.00;;;12.10;99.90;;;;;;4953394;29;20186;-69
2023/11/20 10:44:19;;;;;;;3.93;0.77;;;12.20;99.90;;;;;;4953368;29;20197;-69
2023/11/20 10:46:44;;;;;;;2.53;0.70;;;12.10;99.90;;;;;;4952405;28;20214;-68
2023/11/20 10:49:13;;;;;;;2.87;0.87;;;12.20;99.90;;;;;;4953407;29;20195;-68
2023/11/20 10:51:41;;;;;;;5.10;0.93;;;12.10;99.90;;;;;;4953152;28;20654;-68
2023/11/20 10:54:13;;;;;;;6.33;0.90;;;12.20;99.90;;;;;;4953572;29;20323;-69
2023/11/20 10:56:42;;;;;;;7.23;0.70;;;12.30;99.90;;;;;;4952641;28;20194;-68
2023/11/20 10:59:08;;;;;;;12.77;0.80;;;12.40;99.90;;;;;;4952386;29;20274;-68
2023/11/20 11:01:35;;;;;;;5.83;2.63;;;12.30;99.90;;;;;;4952690;29;20190;-69
2023/11/20 11:04:01;;;;;;;3.33;1.20;;;12.20;99.90;;;;;;4953015;29;20182;-68
2023/11/20 11:06:27;;;;;;;11.63;1.20;;;12.10;99.90;;;;;;4952027;28;20257;-68
2023/11/20 11:08:57;;;;;;;10.43;1.30;;;12.00;99.90;;;;;;4952855;28;20190;-68
2023/11/20 11:11:22;;;;;;;4.37;1.33;;;11.90;99.90;;;;;;4952819;29;20187;-69
2023/11/20 11:13:50;;;;;;;1.50;0.67;;;11.70;99.90;;;;;;4952729;29;20242;-68
2023/11/20 11:16:25;;;;;;;5.03;1.53;;;11.60;99.90;;;;;;4951987;28;20685;-69
2023/11/20 11:19:00;;;;;;;4.07;1.20;;;11.60;99.90;;;;;;4946030;28;20174;-69
2023/11/20 11:21:31;;;;;;;10.50;1.13;;;11.50;99.90;;;;;;4952657;29;20602;-69
2023/11/20 11:23:57;;;;;;;3.10;0.80;;;11.50;99.90;;;;;;4952643;28;20178;-69
2023/11/20 11:26:40;;;;;;;3.00;1.00;;;11.50;99.90;;;;;;4951790;28;20693;-68
2023/11/20 11:29:12;;;;;;;3.43;1.00;;;11.50;99.90;;;;;;4935396;29;20205;-68
2023/11/20 11:32:04;;;;;;;5.10;1.17;;;11.50;99.90;;;;;;4952355;28;20692;-68
2023/11/20 11:34:50;;;;;;;6.07;1.10;;;11.50;99.90;;;;;;4951749;28;20202;-68
2023/11/20 11:37:39;;;;;;;5.43;0.70;;;11.50;99.90;;;;;;4950960;28;20213;-69
2023/11/20 11:40:16;;;;;;;5.70;1.17;;;11.70;99.90;;;;;;4947442;29;20179;-69
2023/11/20 11:42:53;;;;;;;1.73;0.60;;;11.80;99.90;;;;;;4952113;28;20236;-69
2023/11/20 11:45:21;;;;;;;4.43;0.80;;;11.70;99.90;;;;;;4952178;28;20210;-69
2023/11/20 11:47:48;;;;;;;9.70;1.00;;;11.70;99.90;;;;;;4952062;28;20289;-69
2023/11/20 11:50:17;;;;;;;3.93;0.80;;;11.70;99.90;;;;;;4952440;29;20194;-69
2023/11/20 11:52:43;;;;;;;4.60;0.90;;;11.70;99.90;;;;;;4952392;29;20618;-69
2023/11/20 11:55:20;;;;;;;3.30;0.73;;;11.80;99.90;;;;;;4951928;28;20616;-69
2023/11/20 11:57:52;;;;;;;2.70;0.73;;;11.90;99.90;;;;;;4951529;28;20194;-68
2023/11/20 12:00:22;;;;;;;3.33;0.60;;;12.00;99.90;;;;;;4952098;29;20279;-69
2023/11/20 12:02:52;;;;;;;2.27;0.57;;;12.10;99.90;;;;;;4952186;28;20178;-68
2023/11/20 12:05:18;;;;;;;7.37;1.00;;;12.10;99.90;;;;;;4951955;29;20250;-68
2023/11/20 12:07:54;;;;;;;2.50;0.90;;;12.10;99.90;;;;;;4951579;28;20225;-69
2023/11/20 12:10:41;;;;;;;5.30;0.73;;;12.00;99.90;;;;;;4949753;29;20657;-69
2023/11/20 12:13:09;;;;;;;2.70;0.60;;;12.00;99.90;;;;;;4951164;29;20197;-69
2023/11/20 12:15:40;;;;;;;4.13;0.90;;;11.90;99.90;;;;;;4949976;29;20887;-68
2023/11/20 12:18:11;;;;;;;4.20;1.30;;;11.80;99.90;;;;;;4949914;28;20194;-68
2023/11/20 12:20:44;;;;;;;7.17;1.00;;;11.70;99.90;;;;;;4950372;28;20179;-68
2023/11/20 12:23:22;;;;;;;4.53;1.00;;;11.60;99.90;;;;;;4952182;29;20202;-68
2023/11/20 12:25:48;;;;;;;2.73;1.10;;;11.60;99.90;;;;;;4943785;29;20170;-69
2023/11/20 12:28:14;;;;;;;2.53;0.80;;;11.50;99.90;;;;;;4951600;29;20273;-68
2023/11/20 12:30:40;;;;;;;1.27;0.53;;;11.30;99.90;;;;;;4951400;28;20201;-68
2023/11/20 12:33:07;;;;;;;5.50;1.50;;;11.20;99.90;;;;;;4951807;29;20650;-69
2023/11/20 12:35:33;;;;;;;1.87;1.17;;;11.20;99.90;;;;;;4950780;28;20662;-67
2023/11/20 12:38:00;;;;;;;3.77;1.00;;;11.10;99.90;;;;;;4951651;28;20206;-68
2023/11/20 12:40:25;;;;;;;8.50;1.57;;;11.00;99.90;;;;;;4937007;29;20600;-68
2023/11/20 12:42:51;;;;;;;0.87;0.50;;;10.90;99.90;;;;;;4951914;29;20210;-67
2023/11/20 12:45:17;;;;;;;3.07;0.90;;;10.90;99.90;;;;;;4951428;28;20190;-68
2023/11/20 12:47:43;;;;;;;3.97;1.50;;;10.80;99.90;;;;;;4950883;28;20229;-68
2023/11/20 12:50:13;;;;;;;3.43;1.30;;;10.80;99.90;;;;;;4954191;28;20182;-68
2023/11/20 12:52:40;;;;;;;3.60;1.50;;;10.70;99.90;;;;;;4955443;29;20762;-67
2023/11/20 12:55:07;;;;;;;4.77;1.63;;;10.70;99.90;;;;;;4963464;28;20289;-68
2023/11/20 12:57:34;;;;;;;4.33;1.30;;;10.70;99.90;;;;;;4962617;28;20237;-67
2023/11/20 13:00:01;;;;;;;4.97;1.50;;;10.70;99.90;;;;;;4955230;29;20214;-68
2023/11/20 13:02:29;;;;;;;6.20;1.10;;;10.70;99.90;;;;;;4943848;28;20273;-67
2023/11/20 13:04:56;;;;;;;8.83;1.43;;;10.60;99.90;;;;;;4961686;28;20327;-68
2023/11/20 13:07:22;;;;;;;3.97;1.33;;;10.60;99.90;;;;;;4954677;28;20555;-67
2023/11/20 13:09:49;;;;;;;2.77;1.10;;;10.60;99.90;;;;;;4937887;29;20178;-67
2023/11/20 13:12:16;;;;;;;8.47;1.40;;;10.60;99.90;;;;;;4955216;29;20256;-69
2023/11/20 13:15:01;;;;;;;4.57;1.40;;;10.60;99.90;;;;;;4954931;28;20206;-67
2023/11/20 13:17:29;;;;;;;4.57;1.60;;;10.60;99.90;;;;;;4954281;28;20205;-69
2023/11/20 13:19:55;;;;;;;2.87;0.57;;;10.50;99.90;;;;;;4955074;29;20178;-68
2023/11/20 13:22:21;;;;;;;1.60;0.93;;;10.50;99.90;;;;;;4954884;28;20191;-68
2023/11/20 13:24:49;;;;;;;2.27;0.87;;;10.50;99.90;;;;;;4955193;28;20288;-68
2023/11/20 13:27:15;;;;;;;4.77;1.47;;;10.40;99.90;;;;;;4954505;28;20579;-68
2023/11/20 13:29:41;;;;;;;4.63;1.50;;;10.30;99.90;;;;;;4954689;28;20728;-68
2023/11/20 13:32:22;;;;;;;2.83;1.77;;;10.30;99.90;;;;;;4954856;29;20194;-68
2023/11/20 13:34:48;;;;;;;2.67;1.20;;;10.30;99.90;;;;;;4930718;29;20584;-68
2023/11/20 13:37:14;;;;;;;4.63;0.90;;;10.40;99.90;;;;;;4948876;28;20194;-68
2023/11/20 13:39:39;;;;;;;4.90;0.70;;;10.50;99.90;;;;;;4954408;29;20187;-68
2023/11/20 13:42:05;;;;;;;2.10;0.40;;;10.50;99.90;;;;;;4954523;28;20187;-67
2023/11/20 13:44:31;;;;;;;2.70;0.87;;;10.50;99.90;;;;;;4954545;29;20456;-67
2023/11/20 13:46:58;;;;;;;1.97;1.07;;;10.50;99.90;;;;;;4952640;28;20248;-68
2023/11/20 13:49:25;;;;;;;1.87;0.60;;;10.40;99.90;;;;;;4953694;29;20182;-68
2023/11/20 13:51:51;;;;;;;9.10;0.90;;;10.40;99.90;;;;;;4954434;29;20197;-68
2023/11/20 13:54:16;;;;;;;9.20;2.27;;;10.40;99.90;;;;;;4952440;28;20178;-68
2023/11/20 13:56:42;;;;;;;6.77;1.50;;;10.40;99.90;;;;;;4952919;28;20213;-68
2023/11/20 13:59:11;;;;;;;5.83;2.07;;;10.40;99.90;;;;;;4954402;29;20615;-68
2023/11/20 14:01:36;;;;;;;7.23;2.10;;;10.30;99.90;;;;;;4952994;28;20186;-68
2023/11/20 14:04:02;;;;;;;3.10;1.00;;;10.10;99.90;;;;;;4954026;29;20187;-68
2023/11/20 14:06:28;;;;;;;6.03;2.00;;;9.90;99.90;;;;;;4953379;28;20225;-68
2023/11/20 14:08:54;;;;;;;4.67;1.10;;;9.80;99.90;;;;;;4954251;29;20182;-69
2023/11/20 14:11:20;;;;;;;11.00;2.30;;;9.60;99.90;;;;;;4953993;29;20183;-68
2023/11/20 14:13:46;;;;;;;3.70;1.00;;;9.50;99.90;;;;;;4953996;29;20522;-68
2023/11/20 14:16:11;;;;;;;4.37;1.10;;;9.40;99.90;;;;;;4956909;28;20241;-68
2023/11/20 14:18:37;;;;;;;7.97;1.20;;;9.40;99.90;;;;;;4953782;29;20196;-68
2023/11/20 14:21:05;;;;;;;4.77;1.20;;;9.30;99.90;;;;;;4954212;28;20186;-69
2023/11/20 14:23:31;;;;;;;5.10;0.77;;;9.30;99.90;;;;;;4957024;28;20181;-70
2023/11/20 14:25:57;;;;;;;4.03;0.90;;;9.20;99.90;;;;;;4953434;28;20182;-70
2023/11/20 14:28:23;;;;;;;5.63;1.30;;;9.20;99.90;;;;;;4953612;28;20234;-70
2023/11/20 14:30:49;;;;;;;6.07;1.10;;;9.20;99.90;;;;;;4960960;28;20186;-69
2023/11/20 14:33:15;;;;;;;8.43;0.83;;;9.20;99.90;;;;;;4953653;29;20186;-69
2023/11/20 14:35:41;;;;;;;1.70;0.70;;;9.30;99.90;;;;;;4952760;28;20199;-69
2023/11/20 14:38:07;;;;;;;3.90;0.77;;;9.30;99.90;;;;;;4953285;28;20206;-68
2023/11/20 14:40:33;;;;;;;5.07;0.93;;;9.40;99.90;;;;;;4953427;28;20241;-69
2023/11/20 14:42:58;;;;;;;3.53;1.10;;;9.40;99.90;;;;;;4953236;29;20183;-69
2023/11/20 14:45:24;;;;;;;1.67;1.10;;;9.50;99.90;;;;;;4952390;28;20322;-70
2023/11/20 14:47:50;;;;;;;6.47;1.30;;;9.50;99.90;;;;;;4952382;28;20218;-69
2023/11/20 14:50:17;;;;;;;8.70;1.27;;;9.50;99.90;;;;;;4953054;29;20183;-69
2023/11/20 14:52:47;;;;;;;4.53;1.20;;;9.60;99.90;;;;;;4952104;28;20186;-70
2023/11/20 14:55:13;;;;;;;9.07;1.10;;;9.70;99.90;;;;;;4953106;29;20206;-70
2023/11/20 14:57:43;;;;;;;9.87;1.70;;;9.60;99.90;;;;;;4951931;28;20283;-69
2023/11/20 15:00:14;;;;;;;7.37;1.20;;;9.70;99.90;;;;;;4950871;29;20226;-69
2023/11/20 15:02:42;;;;;;;9.13;1.20;;;9.70;99.90;;;;;;4952942;28;20973;-69
2023/11/20 15:05:08;;;;;;;5.50;0.90;;;9.70;99.90;;;;;;4961098;28;20277;-69
2023/11/20 15:07:33;;;;;;;3.57;0.80;;;9.70;99.90;;;;;;4952104;28;20206;-70
2023/11/20 15:10:00;;;;;;;7.57;1.67;;;9.60;99.90;;;;;;4958336;28;20188;-68
2023/11/20 15:12:26;;;;;;;8.87;1.00;;;9.60;99.90;;;;;;4955189;28;20662;-69
2023/11/20 15:14:52;;;;;;;5.13;0.80;;;9.50;99.90;;;;;;4952965;29;20205;-69
2023/11/20 15:17:18;;;;;;;10.17;1.70;;;9.40;99.90;;;;;;4952012;28;20210;-70
2023/11/20 15:19:44;;;;;;;5.50;1.13;;;9.40;99.90;;;;;;4960485;28;20194;-70
2023/11/20 15:22:10;;;;;;;6.27;1.00;;;9.40;99.90;;;;;;4952967;29;20269;-70
2023/11/20 15:24:36;;;;;;;8.47;1.63;;;9.40;99.90;;;;;;4935065;28;20201;-69
2023/11/20 15:27:02;;;;;;;4.40;1.83;;;9.40;99.90;;;;;;4951529;28;20252;-68
2023/11/20 15:29:28;;;;;;;7.67;1.80;;;9.30;99.90;;;;;;4953000;28;20218;-69
2023/11/20 15:31:55;;;;;;;7.87;1.90;;;9.30;99.90;;;;;;4953356;29;20196;-69
2023/11/20 15:34:24;;;;;;;6.20;2.57;;;9.30;99.90;;;;;;4953073;29;20190;-70
2023/11/20 15:36:49;;;;;;;9.63;4.43;;;9.20;99.90;;;;;;4952609;28;20207;-70
2023/11/20 15:39:15;;;;;;;11.67;3.60;;;9.20;99.90;;;;;;4953137;28;20192;-71
2023/11/20 15:41:42;;;;;;;9.93;4.37;;;9.20;99.90;;;;;;4952934;29;20213;-68
2023/11/20 15:44:09;;;;;;;9.03;3.93;;;9.20;99.90;;;;;;4953012;28;20265;-69
2023/11/20 15:46:35;;;;;;;12.57;5.13;;;9.20;99.90;;;;;;4951968;28;20217;-68
2023/11/20 15:49:01;;;;;;;9.00;3.20;;;9.10;99.90;;;;;;4953275;29;20235;-70
2023/11/20 15:51:26;;;;;;;4.93;2.20;;;9.10;99.90;;;;;;4952753;29;20186;-70
2023/11/20 15:53:52;;;;;;;5.67;2.30;;;9.10;99.90;;;;;;4952807;29;20570;-68
2023/11/20 15:56:18;;;;;;;6.97;1.70;;;9.10;99.90;;;;;;4951894;28;20693;-70
2023/11/20 15:58:44;;;;;;;6.30;1.57;;;9.10;99.90;;;;;;4952637;28;20567;-70
2023/11/20 16:01:10;;;;;;;6.47;1.17;;;9.10;99.90;;;;;;4952727;29;20186;-70
2023/11/20 16:03:36;;;;;;;4.30;1.00;;;9.10;99.90;;;;;;4952376;29;20191;-68
2023/11/20 16:06:02;;;;;;;3.93;0.90;;;9.00;99.90;;;;;;4951976;28;20365;-69
2023/11/20 16:08:27;;;;;;;6.97;1.30;;;8.90;99.90;;;;;;4952551;28;20190;-71
2023/11/20 16:10:56;;;;;;;4.00;1.43;;;8.90;99.90;;;;;;4952634;28;20194;-69
2023/11/20 16:13:22;;;;;;;8.23;2.20;;;8.80;99.90;;;;;;4952387;29;20202;-71
2023/11/20 16:15:52;;;;;;;5.43;2.40;;;8.80;99.90;;;;;;4952341;29;20210;-71
2023/11/20 16:18:18;;;;;;;6.90;2.90;;;8.80;99.90;;;;;;4952736;29;20605;-69
2023/11/20 16:20:45;;;;;;;8.93;2.93;;;8.80;99.90;;;;;;4952371;29;20174;-70
2023/11/20 16:23:10;;;;;;;8.57;2.40;;;8.80;99.90;;;;;;4952319;28;20222;-69
2023/11/20 16:25:36;;;;;;;6.47;2.20;;;8.80;99.90;;;;;;4951368;29;20198;-71
2023/11/20 16:28:02;;;;;;;5.57;2.33;;;8.80;99.90;;;;;;4952049;28;20214;-68
2023/11/20 16:30:27;;;;;;;6.87;2.60;;;8.80;99.90;;;;;;4952040;29;20190;-69
2023/11/20 16:32:53;;;;;;;13.20;3.33;;;8.80;99.90;;;;;;4956603;28;20196;-69
2023/11/20 16:35:23;;;;;;;15.10;3.90;;;8.80;99.90;;;;;;4955987;28;20245;-68
2023/11/20 16:37:49;;;;;;;14.60;4.10;;;8.80;99.90;;;;;;4951779;28;20210;-70
2023/11/20 16:40:15;;;;;;;17.13;4.23;;;8.80;99.90;;;;;;4952210;29;20189;-69
2023/11/20 16:42:41;;;;;;;68.43;20.70;;;8.70;99.90;;;;;;4952152;28;20581;-69
2023/11/20 16:45:12;;;;;;;23.73;9.40;;;8.80;99.90;;;;;;4952018;29;20197;-70
2023/11/20 16:47:37;;;;;;;14.60;5.50;;;8.80;99.90;;;;;;4958469;28;20221;-70
2023/11/20 16:50:03;;;;;;;11.37;4.63;;;8.80;99.90;;;;;;4950434;29;20194;-70
2023/11/20 16:52:30;;;;;;;15.90;5.37;;;8.80;99.90;;;;;;4950140;28;20191;-70
2023/11/20 16:54:58;;;;;;;18.50;5.73;;;8.80;99.90;;;;;;4950661;29;20653;-69
2023/11/20 16:57:25;;;;;;;18.03;6.30;;;8.70;99.90;;;;;;4950337;28;20202;-68
2023/11/20 16:59:54;;;;;;;25.63;8.77;;;8.70;99.90;;;;;;4957525;28;20174;-69
2023/11/20 17:02:24;;;;;;;15.00;7.43;;;8.70;99.90;;;;;;4951250;29;20211;-69
2023/11/20 17:04:50;;;;;;;9.83;5.00;;;8.70;99.90;;;;;;4944841;29;20273;-71
2023/11/20 17:07:16;;;;;;;9.20;4.40;;;8.70;99.90;;;;;;4951254;28;20346;-71
2023/11/20 17:09:41;;;;;;;9.60;3.80;;;8.70;99.90;;;;;;4951926;28;20221;-71
2023/11/20 17:12:07;;;;;;;12.10;4.97;;;8.70;99.90;;;;;;4951873;28;20762;-71
2023/11/20 17:14:33;;;;;;;8.30;4.10;;;8.80;99.90;;;;;;4951751;28;22487;-71
2023/11/20 17:16:58;;;;;;;11.73;4.07;;;8.80;99.90;;;;;;4951252;28;20211;-71
2023/11/20 17:19:24;;;;;;;8.77;3.40;;;8.80;99.90;;;;;;4951869;29;20195;-70
2023/11/20 17:21:51;;;;;;;7.70;3.50;;;8.70;99.90;;;;;;4951849;29;20183;-70
2023/11/20 17:24:17;;;;;;;9.50;3.53;;;8.70;99.90;;;;;;4952003;29;20250;-71
2023/11/20 17:26:43;;;;;;;10.90;3.70;;;8.70;99.90;;;;;;4950835;28;20638;-70
2023/11/20 17:29:09;;;;;;;11.00;4.17;;;8.70;99.90;;;;;;4951826;29;20218;-70
2023/11/20 17:31:35;;;;;;;8.60;4.23;;;8.70;99.90;;;;;;4951647;29;20642;-71
2023/11/20 17:34:01;;;;;;;12.50;5.20;;;8.70;99.90;;;;;;4951806;28;20198;-71
2023/11/20 17:36:27;;;;;;;10.90;4.60;;;8.70;99.90;;;;;;4953569;28;20214;-71